Allendorf, Iowa
Current Conditions -  °F | °C
As of 3:55 AM on Sunday 21 Dec 2014 (Local Time) from KSHL Reporting Station
Moderate Fog Moderate Fog  
Wind Chill: 23°   Ceiling: 300
Heat Index: 32°   Visibility: 0.5mi
Dew Point: 32°   Wind: 12mph
Humidity: 100%   Direction: 160°SSE
Pressure: 29.87"   Gusts: NA
Location:  43.41°N, 95.64°W
Report Text: KSHL 210955Z AUTO 16010KT 1/2SM FZFG OVC003 M00/M00 A2987 RMK AO2
Loading
Personal Weather Stations






























Interactive Weather Map New forecast layout! Learn more

10-Day Weather Forecast

Advertisements
Track Severe Weather on mobile